sensor_id;sensor_type;location;lat;lon;timestamp;pressure;altitude;pressure_sealevel;temperature;humidity
5812;BME280;2932;52.400;9.558;2023-07-08T00:00:51;101421.88;;;24.15;51.54
5812;BME280;2932;52.400;9.558;2023-07-08T00:03:18;101432.81;;;24.13;51.75
5812;BME280;2932;52.400;9.558;2023-07-08T00:05:44;101430.84;;;24.06;51.84
5812;BME280;2932;52.400;9.558;2023-07-08T00:08:17;101432.84;;;24.09;51.95
5812;BME280;2932;52.400;9.558;2023-07-08T00:10:44;101429.22;;;24.09;52.07
5812;BME280;2932;52.400;9.558;2023-07-08T00:13:10;101424.75;;;24.11;52.11
5812;BME280;2932;52.400;9.558;2023-07-08T00:15:36;101425.16;;;24.10;52.11
5812;BME280;2932;52.400;9.558;2023-07-08T00:18:10;101433.25;;;24.08;52.44
5812;BME280;2932;52.400;9.558;2023-07-08T00:20:39;101417.53;;;24.07;52.53
5812;BME280;2932;52.400;9.558;2023-07-08T00:23:05;101416.72;;;24.06;53.14
5812;BME280;2932;52.400;9.558;2023-07-08T00:25:31;101418.34;;;24.04;53.15
5812;BME280;2932;52.400;9.558;2023-07-08T00:27:57;101421.97;;;24.04;52.75
5812;BME280;2932;52.400;9.558;2023-07-08T00:30:26;101411.16;;;23.99;52.95
5812;BME280;2932;52.400;9.558;2023-07-08T00:32:52;101410.00;;;23.93;52.58
5812;BME280;2932;52.400;9.558;2023-07-08T00:35:29;101413.25;;;23.91;52.96
5812;BME280;2932;52.400;9.558;2023-07-08T00:37:55;101411.22;;;23.92;52.87
5812;BME280;2932;52.400;9.558;2023-07-08T00:40:31;101403.56;;;23.89;52.85
5812;BME280;2932;52.400;9.558;2023-07-08T00:43:00;101406.81;;;23.87;52.51
5812;BME280;2932;52.400;9.558;2023-07-08T00:48:09;101409.75;;;23.77;52.13
5812;BME280;2932;52.400;9.558;2023-07-08T00:50:36;101409.78;;;23.73;52.18
5812;BME280;2932;52.400;9.558;2023-07-08T00:55:45;101407.78;;;23.70;52.03
5812;BME280;2932;52.400;9.558;2023-07-08T00:58:10;101411.06;;;23.61;52.42
5812;BME280;2932;52.400;9.558;2023-07-08T01:00:36;101409.03;;;23.66;52.42
5812;BME280;2932;52.400;9.558;2023-07-08T01:03:01;101407.41;;;23.65;52.48
5812;BME280;2932;52.400;9.558;2023-07-08T01:05:28;101406.59;;;23.68;52.64
5812;BME280;2932;52.400;9.558;2023-07-08T01:07:58;101393.78;;;23.56;52.81
5812;BME280;2932;52.400;9.558;2023-07-08T01:10:28;101397.84;;;23.55;53.26
5812;BME280;2932;52.400;9.558;2023-07-08T01:12:59;101395.78;;;23.59;53.16
5812;BME280;2932;52.400;9.558;2023-07-08T01:15:32;101386.16;;;23.49;53.35
5812;BME280;2932;52.400;9.558;2023-07-08T01:18:01;101391.44;;;23.44;53.11
5812;BME280;2932;52.400;9.558;2023-07-08T01:20:27;101387.06;;;23.36;53.59
5812;BME280;2932;52.400;9.558;2023-07-08T01:22:52;101383.81;;;23.37;53.75
5812;BME280;2932;52.400;9.558;2023-07-08T01:25:20;101381.38;;;23.39;53.66
5812;BME280;2932;52.400;9.558;2023-07-08T01:27:48;101383.44;;;23.32;54.14
5812;BME280;2932;52.400;9.558;2023-07-08T01:30:15;101377.03;;;23.27;54.32
5812;BME280;2932;52.400;9.558;2023-07-08T01:32:46;101375.44;;;23.23;54.27
5812;BME280;2932;52.400;9.558;2023-07-08T01:35:13;101374.63;;;23.26;54.12
5812;BME280;2932;52.400;9.558;2023-07-08T01:37:46;101379.00;;;23.34;54.24
5812;BME280;2932;52.400;9.558;2023-07-08T01:42:54;101370.53;;;23.34;54.49
5812;BME280;2932;52.400;9.558;2023-07-08T01:45:21;101373.03;;;23.21;55.01
5812;BME280;2932;52.400;9.558;2023-07-08T01:47:53;101367.81;;;23.20;55.13
5812;BME280;2932;52.400;9.558;2023-07-08T01:50:20;101359.78;;;23.18;55.49
5812;BME280;2932;52.400;9.558;2023-07-08T01:52:48;101360.59;;;23.15;55.65
5812;BME280;2932;52.400;9.558;2023-07-08T01:55:15;101354.53;;;23.17;54.85
5812;BME280;2932;52.400;9.558;2023-07-08T01:57:40;101362.66;;;23.11;54.71
5812;BME280;2932;52.400;9.558;2023-07-08T02:00:06;101361.88;;;23.07;54.73
5812;BME280;2932;52.400;9.558;2023-07-08T02:02:31;101359.03;;;23.11;54.71
5812;BME280;2932;52.400;9.558;2023-07-08T02:04:57;101358.22;;;23.10;54.72
5812;BME280;2932;52.400;9.558;2023-07-08T02:07:22;101355.81;;;23.09;54.59
5812;BME280;2932;52.400;9.558;2023-07-08T02:09:47;101346.19;;;22.99;54.79
5812;BME280;2932;52.400;9.558;2023-07-08T02:12:13;101343.03;;;22.90;55.08
5812;BME280;2932;52.400;9.558;2023-07-08T02:14:38;101347.44;;;22.94;55.22
5812;BME280;2932;52.400;9.558;2023-07-08T02:17:03;101345.00;;;22.97;54.99
5812;BME280;2932;52.400;9.558;2023-07-08T02:19:30;101348.66;;;22.93;55.15
5812;BME280;2932;52.400;9.558;2023-07-08T02:21:56;101347.56;;;22.66;56.07
5812;BME280;2932;52.400;9.558;2023-07-08T02:24:21;101342.91;;;22.38;57.12
5812;BME280;2932;52.400;9.558;2023-07-08T02:26:48;101344.78;;;22.59;57.03
5812;BME280;2932;52.400;9.558;2023-07-08T02:29:13;101344.72;;;22.73;56.63
5812;BME280;2932;52.400;9.558;2023-07-08T02:31:38;101338.66;;;22.75;56.39
5812;BME280;2932;52.400;9.558;2023-07-08T02:34:04;101338.28;;;22.69;55.96
5812;BME280;2932;52.400;9.558;2023-07-08T02:36:29;101336.66;;;22.75;56.15
5812;BME280;2932;52.400;9.558;2023-07-08T02:38:55;101333.00;;;22.82;56.15
5812;BME280;2932;52.400;9.558;2023-07-08T02:41:20;101340.25;;;22.79;56.05
5812;BME280;2932;52.400;9.558;2023-07-08T02:43:45;101345.91;;;22.79;55.94
5812;BME280;2932;52.400;9.558;2023-07-08T02:46:11;101342.66;;;22.84;56.41
5812;BME280;2932;52.400;9.558;2023-07-08T02:48:36;101343.50;;;22.78;56.59
5812;BME280;2932;52.400;9.558;2023-07-08T02:51:03;101338.31;;;22.66;56.45
5812;BME280;2932;52.400;9.558;2023-07-08T02:53:29;101333.91;;;22.61;56.28
5812;BME280;2932;52.400;9.558;2023-07-08T02:55:55;101333.91;;;22.57;56.33
5812;BME280;2932;52.400;9.558;2023-07-08T02:58:20;101331.13;;;22.50;56.46
5812;BME280;2932;52.400;9.558;2023-07-08T03:00:54;101335.53;;;22.55;56.50
5812;BME280;2932;52.400;9.558;2023-07-08T03:03:19;101336.38;;;22.45;56.55
5812;BME280;2932;52.400;9.558;2023-07-08T03:05:54;101335.66;;;22.37;56.83
5812;BME280;2932;52.400;9.558;2023-07-08T03:08:19;101342.84;;;22.42;56.52
5812;BME280;2932;52.400;9.558;2023-07-08T03:10:53;101331.22;;;22.36;56.73
5812;BME280;2932;52.400;9.558;2023-07-08T03:13:19;101329.63;;;22.35;56.61
5812;BME280;2932;52.400;9.558;2023-07-08T03:15:44;101327.53;;;22.43;56.43
5812;BME280;2932;52.400;9.558;2023-07-08T03:18:10;101338.41;;;22.41;56.33
5812;BME280;2932;52.400;9.558;2023-07-08T03:20:39;101336.78;;;22.47;56.59
5812;BME280;2932;52.400;9.558;2023-07-08T03:23:05;101338.78;;;22.50;56.59
5812;BME280;2932;52.400;9.558;2023-07-08T03:25:30;101338.00;;;22.46;56.46
5812;BME280;2932;52.400;9.558;2023-07-08T03:27:55;101336.41;;;22.41;56.25
5812;BME280;2932;52.400;9.558;2023-07-08T03:30:22;101347.66;;;22.45;56.69
5812;BME280;2932;52.400;9.558;2023-07-08T03:32:48;101347.66;;;22.45;56.50
5812;BME280;2932;52.400;9.558;2023-07-08T03:35:14;101346.44;;;22.49;56.54
5812;BME280;2932;52.400;9.558;2023-07-08T03:37:39;101347.66;;;22.52;56.49
5812;BME280;2932;52.400;9.558;2023-07-08T03:40:07;101353.28;;;22.52;56.43
5812;BME280;2932;52.400;9.558;2023-07-08T03:42:34;101346.84;;;22.51;56.44
5812;BME280;2932;52.400;9.558;2023-07-08T03:45:00;101342.03;;;22.48;56.44
5812;BME280;2932;52.400;9.558;2023-07-08T03:47:25;101333.16;;;22.46;56.59
5812;BME280;2932;52.400;9.558;2023-07-08T03:49:50;101333.97;;;22.47;56.38
5812;BME280;2932;52.400;9.558;2023-07-08T03:52:16;101336.38;;;22.52;56.55
5812;BME280;2932;52.400;9.558;2023-07-08T03:54:42;101338.78;;;22.50;56.54
5812;BME280;2932;52.400;9.558;2023-07-08T03:57:07;101336.81;;;22.43;56.83
5812;BME280;2932;52.400;9.558;2023-07-08T03:59:33;101338.78;;;22.53;56.48
5812;BME280;2932;52.400;9.558;2023-07-08T04:01:58;101342.41;;;22.54;56.84
5812;BME280;2932;52.400;9.558;2023-07-08T04:04:23;101350.81;;;22.61;56.64
5812;BME280;2932;52.400;9.558;2023-07-08T04:06:49;101345.16;;;22.65;56.69
5812;BME280;2932;52.400;9.558;2023-07-08T04:09:15;101344.31;;;22.71;56.65
5812;BME280;2932;52.400;9.558;2023-07-08T04:11:41;101336.66;;;22.75;56.76
5812;BME280;2932;52.400;9.558;2023-07-08T04:14:08;101334.25;;;22.74;56.66
5812;BME280;2932;52.400;9.558;2023-07-08T04:19:14;101337.03;;;22.77;56.96
5812;BME280;2932;52.400;9.558;2023-07-08T04:21:41;101333.03;;;22.78;56.82
5812;BME280;2932;52.400;9.558;2023-07-08T04:24:12;101331.38;;;22.81;57.02
5812;BME280;2932;52.400;9.558;2023-07-08T04:26:39;101339.44;;;22.82;56.64
5812;BME280;2932;52.400;9.558;2023-07-08T04:29:12;101334.63;;;22.79;56.76
5812;BME280;2932;52.400;9.558;2023-07-08T04:31:38;101348.28;;;22.84;56.73
5812;BME280;2932;52.400;9.558;2023-07-08T04:34:03;101342.59;;;22.91;56.70
5812;BME280;2932;52.400;9.558;2023-07-08T04:36:29;101349.06;;;22.92;56.56
5812;BME280;2932;52.400;9.558;2023-07-08T04:38:55;101349.06;;;22.92;56.28
5812;BME280;2932;52.400;9.558;2023-07-08T04:41:23;101354.75;;;22.85;55.90
5812;BME280;2932;52.400;9.558;2023-07-08T04:43:48;101346.66;;;22.87;55.94
5812;BME280;2932;52.400;9.558;2023-07-08T04:46:23;101346.66;;;22.90;56.26
5812;BME280;2932;52.400;9.558;2023-07-08T04:48:52;101347.00;;;22.96;55.87
5812;BME280;2932;52.400;9.558;2023-07-08T04:51:18;101347.41;;;22.98;55.65
5812;BME280;2932;52.400;9.558;2023-07-08T04:53:44;101340.94;;;23.01;55.64
5812;BME280;2932;52.400;9.558;2023-07-08T04:56:09;101346.16;;;23.06;55.73
5812;BME280;2932;52.400;9.558;2023-07-08T04:58:35;101340.88;;;23.08;55.49
5812;BME280;2932;52.400;9.558;2023-07-08T05:01:00;101349.81;;;23.00;55.77
5812;BME280;2932;52.400;9.558;2023-07-08T05:03:25;101343.34;;;23.03;56.07
5812;BME280;2932;52.400;9.558;2023-07-08T05:05:51;101348.19;;;23.02;55.62
5812;BME280;2932;52.400;9.558;2023-07-08T05:08:16;101350.56;;;23.11;55.58
5812;BME280;2932;52.400;9.558;2023-07-08T05:10:41;101360.19;;;23.17;55.61
5812;BME280;2932;52.400;9.558;2023-07-08T05:13:07;101358.50;;;23.23;55.53
5812;BME280;2932;52.400;9.558;2023-07-08T05:15:32;101351.16;;;23.36;55.45
5812;BME280;2932;52.400;9.558;2023-07-08T05:17:57;101353.63;;;23.27;55.51
5812;BME280;2932;52.400;9.558;2023-07-08T05:20:23;101355.56;;;23.37;55.48
5812;BME280;2932;52.400;9.558;2023-07-08T05:22:48;101354.34;;;23.38;55.50
5812;BME280;2932;52.400;9.558;2023-07-08T05:25:14;101355.53;;;23.44;55.65
5812;BME280;2932;52.400;9.558;2023-07-08T05:27:40;101360.38;;;23.44;55.53
5812;BME280;2932;52.400;9.558;2023-07-08T05:30:10;101356.69;;;23.50;55.60
5812;BME280;2932;52.400;9.558;2023-07-08T05:32:37;101361.94;;;23.48;55.91
5812;BME280;2932;52.400;9.558;2023-07-08T05:35:03;101361.13;;;23.55;55.67
5812;BME280;2932;52.400;9.558;2023-07-08T05:37:28;101363.09;;;23.58;55.56
5812;BME280;2932;52.400;9.558;2023-07-08T05:39:55;101350.50;;;23.66;55.53
5812;BME280;2932;52.400;9.558;2023-07-08T05:42:21;101343.59;;;23.71;55.47
5812;BME280;2932;52.400;9.558;2023-07-08T05:44:47;101354.06;;;23.74;55.44
5812;BME280;2932;52.400;9.558;2023-07-08T05:47:13;101342.25;;;23.82;55.59
5812;BME280;2932;52.400;9.558;2023-07-08T05:49:39;101345.50;;;23.81;55.63
5812;BME280;2932;52.400;9.558;2023-07-08T05:52:04;101340.22;;;23.86;56.01
5812;BME280;2932;52.400;9.558;2023-07-08T05:54:33;101344.53;;;23.98;55.64
5812;BME280;2932;52.400;9.558;2023-07-08T05:56:58;101343.19;;;24.06;55.87
5812;BME280;2932;52.400;9.558;2023-07-08T05:59:24;101341.59;;;24.05;55.89
5812;BME280;2932;52.400;9.558;2023-07-08T06:01:49;101345.50;;;24.18;55.63
5812;BME280;2932;52.400;9.558;2023-07-08T06:04:14;101343.44;;;24.22;55.75
5812;BME280;2932;52.400;9.558;2023-07-08T06:06:40;101341.78;;;24.29;55.60
5812;BME280;2932;52.400;9.558;2023-07-08T06:09:05;101340.88;;;24.35;55.32
5812;BME280;2932;52.400;9.558;2023-07-08T06:11:30;101340.34;;;24.44;54.73
5812;BME280;2932;52.400;9.558;2023-07-08T06:13:55;101331.06;;;24.43;54.66
5812;BME280;2932;52.400;9.558;2023-07-08T06:16:22;101335.34;;;24.55;54.42
5812;BME280;2932;52.400;9.558;2023-07-08T06:18:47;101332.91;;;24.57;54.51
5812;BME280;2932;52.400;9.558;2023-07-08T06:21:12;101333.19;;;24.66;54.87
5812;BME280;2932;52.400;9.558;2023-07-08T06:23:37;101334.31;;;24.72;54.25
5812;BME280;2932;52.400;9.558;2023-07-08T06:26:03;101335.50;;;24.75;54.27
5812;BME280;2932;52.400;9.558;2023-07-08T06:28:28;101336.91;;;24.86;54.21
5812;BME280;2932;52.400;9.558;2023-07-08T06:30:53;101338.63;;;24.80;53.72
5812;BME280;2932;52.400;9.558;2023-07-08T06:33:19;101333.72;;;24.84;53.00
5812;BME280;2932;52.400;9.558;2023-07-08T06:35:44;101337.28;;;24.88;53.56
5812;BME280;2932;52.400;9.558;2023-07-08T06:38:10;101330.03;;;24.87;53.64
5812;BME280;2932;52.400;9.558;2023-07-08T06:40:35;101334.59;;;25.08;53.28
5812;BME280;2932;52.400;9.558;2023-07-08T06:43:02;101341.44;;;25.11;53.04
5812;BME280;2932;52.400;9.558;2023-07-08T06:45:28;101333.00;;;25.07;53.03
5812;BME280;2932;52.400;9.558;2023-07-08T06:47:53;101340.97;;;25.16;52.69
5812;BME280;2932;52.400;9.558;2023-07-08T06:50:18;101330.00;;;25.18;52.81
5812;BME280;2932;52.400;9.558;2023-07-08T06:52:44;101336.09;;;25.16;52.78
5812;BME280;2932;52.400;9.558;2023-07-08T06:55:10;101334.94;;;25.37;52.78
5812;BME280;2932;52.400;9.558;2023-07-08T06:57:36;101337.75;;;25.37;53.52
5812;BME280;2932;52.400;9.558;2023-07-08T07:00:04;101334.81;;;25.44;53.21
5812;BME280;2932;52.400;9.558;2023-07-08T07:02:32;101335.28;;;25.63;52.76
5812;BME280;2932;52.400;9.558;2023-07-08T07:04:58;101335.56;;;25.72;52.91
5812;BME280;2932;52.400;9.558;2023-07-08T07:07:23;101325.06;;;25.69;51.99
5812;BME280;2932;52.400;9.558;2023-07-08T07:09:49;101324.09;;;25.79;52.14
5812;BME280;2932;52.400;9.558;2023-07-08T07:12:14;101324.25;;;25.91;52.39
5812;BME280;2932;52.400;9.558;2023-07-08T07:14:39;101316.31;;;26.03;51.90
5812;BME280;2932;52.400;9.558;2023-07-08T07:17:05;101324.03;;;26.02;51.90
5812;BME280;2932;52.400;9.558;2023-07-08T07:19:30;101322.34;;;26.05;51.81
5812;BME280;2932;52.400;9.558;2023-07-08T07:21:55;101321.19;;;26.02;50.58
5812;BME280;2932;52.400;9.558;2023-07-08T07:24:21;101321.91;;;26.06;50.76
5812;BME280;2932;52.400;9.558;2023-07-08T07:26:46;101320.25;;;26.09;50.90
5812;BME280;2932;52.400;9.558;2023-07-08T07:29:13;101316.59;;;26.08;50.78
5812;BME280;2932;52.400;9.558;2023-07-08T07:31:38;101323.38;;;26.14;51.12
5812;BME280;2932;52.400;9.558;2023-07-08T07:34:05;101323.66;;;26.20;50.98
5812;BME280;2932;52.400;9.558;2023-07-08T07:36:31;101329.09;;;26.34;50.81
5812;BME280;2932;52.400;9.558;2023-07-08T07:38:56;101320.13;;;26.36;50.01
5812;BME280;2932;52.400;9.558;2023-07-08T07:41:21;101322.78;;;26.43;50.01
5812;BME280;2932;52.400;9.558;2023-07-08T07:43:47;101317.03;;;26.46;50.39
5812;BME280;2932;52.400;9.558;2023-07-08T07:46:12;101316.53;;;26.51;50.11
5812;BME280;2932;52.400;9.558;2023-07-08T07:48:38;101321.53;;;26.64;49.49
5812;BME280;2932;52.400;9.558;2023-07-08T07:51:04;101324.66;;;26.69;50.01
5812;BME280;2932;52.400;9.558;2023-07-08T07:53:30;101318.38;;;26.78;50.33
5812;BME280;2932;52.400;9.558;2023-07-08T07:56:00;101313.84;;;26.80;49.43
5812;BME280;2932;52.400;9.558;2023-07-08T07:58:26;101320.44;;;26.94;49.10
5812;BME280;2932;52.400;9.558;2023-07-08T08:00:51;101320.91;;;27.08;48.91
5812;BME280;2932;52.400;9.558;2023-07-08T08:03:17;101312.81;;;27.23;49.46
5812;BME280;2932;52.400;9.558;2023-07-08T08:05:42;101316.47;;;27.40;49.28
5812;BME280;2932;52.400;9.558;2023-07-08T08:08:08;101309.09;;;27.42;48.59
5812;BME280;2932;52.400;9.558;2023-07-08T08:10:35;101313.34;;;27.50;48.53
5812;BME280;2932;52.400;9.558;2023-07-08T08:13:00;101313.34;;;27.67;48.71
5812;BME280;2932;52.400;9.558;2023-07-08T08:15:25;101319.69;;;27.87;48.88
5812;BME280;2932;52.400;9.558;2023-07-08T08:17:51;101321.53;;;27.94;48.11
5812;BME280;2932;52.400;9.558;2023-07-08T08:20:18;101323.94;;;27.95;48.15
5812;BME280;2932;52.400;9.558;2023-07-08T08:22:44;101330.91;;;28.07;48.36
5812;BME280;2932;52.400;9.558;2023-07-08T08:25:09;101327.59;;;28.08;48.11
5812;BME280;2932;52.400;9.558;2023-07-08T08:27:35;101322.88;;;28.18;48.42
5812;BME280;2932;52.400;9.558;2023-07-08T08:30:01;101332.94;;;28.23;48.30
5812;BME280;2932;52.400;9.558;2023-07-08T08:32:26;101328.03;;;28.23;48.42
5812;BME280;2932;52.400;9.558;2023-07-08T08:34:51;101327.97;;;28.52;48.44
5812;BME280;2932;52.400;9.558;2023-07-08T08:37:16;101322.19;;;28.68;48.10
5812;BME280;2932;52.400;9.558;2023-07-08T08:39:42;101331.44;;;28.85;47.88
5812;BME280;2932;52.400;9.558;2023-07-08T08:42:38;101323.03;;;29.07;47.64
5812;BME280;2932;52.400;9.558;2023-07-08T08:45:05;101323.59;;;29.14;46.09
5812;BME280;2932;52.400;9.558;2023-07-08T08:47:41;101330.78;;;29.06;46.41
5812;BME280;2932;52.400;9.558;2023-07-08T08:50:41;101325.28;;;29.12;45.76
5812;BME280;2932;52.400;9.558;2023-07-08T08:53:11;101318.09;;;29.20;45.59
5812;BME280;2932;52.400;9.558;2023-07-08T08:55:37;101305.88;;;29.32;46.37
5812;BME280;2932;52.400;9.558;2023-07-08T09:03:16;101317.72;;;29.56;45.19
5812;BME280;2932;52.400;9.558;2023-07-08T09:05:45;101322.00;;;29.61;45.47
5812;BME280;2932;52.400;9.558;2023-07-08T09:08:30;101314.69;;;29.72;45.75
5812;BME280;2932;52.400;9.558;2023-07-08T09:13:33;101309.34;;;29.96;44.91
5812;BME280;2932;52.400;9.558;2023-07-08T09:18:38;101305.91;;;30.23;44.62
5812;BME280;2932;52.400;9.558;2023-07-08T09:21:17;101308.47;;;30.30;44.93
5812;BME280;2932;52.400;9.558;2023-07-08T09:23:45;101298.22;;;30.42;44.37
5812;BME280;2932;52.400;9.558;2023-07-08T09:26:16;101300.47;;;30.47;45.03
5812;BME280;2932;52.400;9.558;2023-07-08T09:28:44;101294.47;;;30.54;44.54
5812;BME280;2932;52.400;9.558;2023-07-08T09:31:26;101295.88;;;30.71;44.28
5812;BME280;2932;52.400;9.558;2023-07-08T09:34:13;101293.50;;;30.70;43.41
5812;BME280;2932;52.400;9.558;2023-07-08T09:36:47;101303.53;;;30.83;44.34
5812;BME280;2932;52.400;9.558;2023-07-08T09:39:15;101300.53;;;30.87;43.55
5812;BME280;2932;52.400;9.558;2023-07-08T09:41:42;101299.59;;;30.90;44.02
5812;BME280;2932;52.400;9.558;2023-07-08T09:44:26;101296.72;;;30.90;43.47
5812;BME280;2932;52.400;9.558;2023-07-08T09:46:55;101293.28;;;31.04;43.52
5812;BME280;2932;52.400;9.558;2023-07-08T09:51:50;101297.88;;;31.02;42.62
5812;BME280;2932;52.400;9.558;2023-07-08T09:54:23;101301.94;;;31.13;42.91
5812;BME280;2932;52.400;9.558;2023-07-08T09:59:18;101295.09;;;31.29;43.02
5812;BME280;2932;52.400;9.558;2023-07-08T10:01:44;101296.22;;;31.32;43.03
5812;BME280;2932;52.400;9.558;2023-07-08T10:04:11;101301.00;;;31.35;43.22
5812;BME280;2932;52.400;9.558;2023-07-08T10:06:36;101302.91;;;31.38;42.40
5812;BME280;2932;52.400;9.558;2023-07-08T10:09:13;101305.13;;;31.34;42.45
5812;BME280;2932;52.400;9.558;2023-07-08T10:11:48;101302.13;;;31.37;43.13
5812;BME280;2932;52.400;9.558;2023-07-08T10:14:23;101297.72;;;31.55;42.93
5812;BME280;2932;52.400;9.558;2023-07-08T10:16:50;101301.03;;;31.53;42.91
5812;BME280;2932;52.400;9.558;2023-07-08T10:19:17;101295.03;;;31.69;42.19
5812;BME280;2932;52.400;9.558;2023-07-08T10:25:35;101291.19;;;32.00;42.35
5812;BME280;2932;52.400;9.558;2023-07-08T10:28:24;101294.50;;;32.16;42.73
5812;BME280;2932;52.400;9.558;2023-07-08T10:37:00;101287.03;;;32.01;42.37
5812;BME280;2932;52.400;9.558;2023-07-08T10:39:47;101291.34;;;32.05;41.84
5812;BME280;2932;52.400;9.558;2023-07-08T10:45:13;101295.47;;;32.04;41.75
5812;BME280;2932;52.400;9.558;2023-07-08T10:55:59;101281.63;;;32.03;42.32
5812;BME280;2932;52.400;9.558;2023-07-08T11:07:14;101286.56;;;32.30;40.43
5812;BME280;2932;52.400;9.558;2023-07-08T11:09:50;101283.53;;;32.33;40.56
5812;BME280;2932;52.400;9.558;2023-07-08T11:12:29;101287.31;;;32.39;40.45
5812;BME280;2932;52.400;9.558;2023-07-08T11:15:04;101289.00;;;32.55;40.58
5812;BME280;2932;52.400;9.558;2023-07-08T11:17:37;101286.97;;;32.46;40.62
5812;BME280;2932;52.400;9.558;2023-07-08T11:22:50;101278.78;;;32.63;41.29
5812;BME280;2932;52.400;9.558;2023-07-08T11:25:20;101270.81;;;32.76;39.93
5812;BME280;2932;52.400;9.558;2023-07-08T11:27:50;101271.38;;;32.90;40.35
5812;BME280;2932;52.400;9.558;2023-07-08T11:30:21;101265.63;;;32.90;39.27
5812;BME280;2932;52.400;9.558;2023-07-08T11:32:54;101269.72;;;32.98;39.05
5812;BME280;2932;52.400;9.558;2023-07-08T11:35:33;101280.38;;;33.06;40.09
5812;BME280;2932;52.400;9.558;2023-07-08T11:38:01;101264.06;;;33.12;40.29
5812;BME280;2932;52.400;9.558;2023-07-08T11:40:28;101266.56;;;33.20;38.98
5812;BME280;2932;52.400;9.558;2023-07-08T11:43:00;101248.34;;;33.32;39.78
5812;BME280;2932;52.400;9.558;2023-07-08T11:45:35;101254.91;;;33.23;40.24
5812;BME280;2932;52.400;9.558;2023-07-08T11:48:27;101257.78;;;33.23;40.03
5812;BME280;2932;52.400;9.558;2023-07-08T11:50:54;101249.44;;;33.34;39.46
5812;BME280;2932;52.400;9.558;2023-07-08T11:56:04;101246.56;;;33.34;36.51
5812;BME280;2932;52.400;9.558;2023-07-08T12:03:51;101240.59;;;33.62;36.32
5812;BME280;2932;52.400;9.558;2023-07-08T12:08:56;101236.06;;;33.70;34.85
5812;BME280;2932;52.400;9.558;2023-07-08T12:11:35;101237.84;;;33.67;36.08
5812;BME280;2932;52.400;9.558;2023-07-08T12:14:03;101234.78;;;33.71;37.07
5812;BME280;2932;52.400;9.558;2023-07-08T12:16:31;101231.91;;;33.71;36.15
5812;BME280;2932;52.400;9.558;2023-07-08T12:18:59;101226.84;;;33.66;35.89
5812;BME280;2932;52.400;9.558;2023-07-08T12:21:26;101230.41;;;33.61;35.51
5812;BME280;2932;52.400;9.558;2023-07-08T12:23:53;101232.59;;;33.66;34.34
5812;BME280;2932;52.400;9.558;2023-07-08T12:26:19;101232.47;;;33.84;33.92
5812;BME280;2932;52.400;9.558;2023-07-08T12:28:45;101224.13;;;33.86;34.98
5812;BME280;2932;52.400;9.558;2023-07-08T12:31:17;101226.03;;;33.89;35.57
5812;BME280;2932;52.400;9.558;2023-07-08T12:33:44;101232.06;;;33.91;35.13
5812;BME280;2932;52.400;9.558;2023-07-08T12:36:13;101226.31;;;33.91;35.49
5812;BME280;2932;52.400;9.558;2023-07-08T12:38:43;101230.69;;;33.87;35.58
5812;BME280;2932;52.400;9.558;2023-07-08T12:41:15;101228.66;;;33.78;35.08
5812;BME280;2932;52.400;9.558;2023-07-08T12:43:44;101223.25;;;33.80;34.63
5812;BME280;2932;52.400;9.558;2023-07-08T12:46:10;101223.94;;;33.90;34.91
5812;BME280;2932;52.400;9.558;2023-07-08T12:48:40;101213.75;;;33.89;35.19
5812;BME280;2932;52.400;9.558;2023-07-08T12:51:10;101215.13;;;34.08;34.87
5812;BME280;2932;52.400;9.558;2023-07-08T12:53:36;101219.19;;;34.16;34.69
5812;BME280;2932;52.400;9.558;2023-07-08T12:56:02;101209.56;;;34.19;34.58
5812;BME280;2932;52.400;9.558;2023-07-08T12:58:30;101216.69;;;34.24;35.81
5812;BME280;2932;52.400;9.558;2023-07-08T13:00:57;101216.34;;;34.31;35.42
5812;BME280;2932;52.400;9.558;2023-07-08T13:03:26;101212.34;;;34.28;35.64
5812;BME280;2932;52.400;9.558;2023-07-08T13:05:53;101229.91;;;34.30;36.35
5812;BME280;2932;52.400;9.558;2023-07-08T13:08:24;101207.69;;;34.16;35.44
5812;BME280;2932;52.400;9.558;2023-07-08T13:10:52;101215.50;;;34.16;36.07
5812;BME280;2932;52.400;9.558;2023-07-08T13:13:22;101213.22;;;34.20;35.33
5812;BME280;2932;52.400;9.558;2023-07-08T13:15:50;101216.63;;;34.33;34.74
5812;BME280;2932;52.400;9.558;2023-07-08T13:18:18;101206.97;;;34.51;35.13
5812;BME280;2932;52.400;9.558;2023-07-08T13:20:51;101214.78;;;34.50;34.86
5812;BME280;2932;52.400;9.558;2023-07-08T13:23:17;101206.75;;;34.54;33.78
5812;BME280;2932;52.400;9.558;2023-07-08T13:25:42;101210.03;;;34.47;33.79
5812;BME280;2932;52.400;9.558;2023-07-08T13:28:24;101199.53;;;34.44;34.39
5812;BME280;2932;52.400;9.558;2023-07-08T13:31:11;101200.50;;;34.56;35.18
5812;BME280;2932;52.400;9.558;2023-07-08T13:33:38;101199.50;;;34.59;35.23
5812;BME280;2932;52.400;9.558;2023-07-08T13:36:04;101202.06;;;34.71;35.37
5812;BME280;2932;52.400;9.558;2023-07-08T13:38:35;101196.72;;;34.64;34.99
5812;BME280;2932;52.400;9.558;2023-07-08T13:41:05;101194.75;;;34.56;35.79
5812;BME280;2932;52.400;9.558;2023-07-08T13:43:35;101192.38;;;34.54;35.77
5812;BME280;2932;52.400;9.558;2023-07-08T13:46:02;101200.97;;;34.34;35.50
5812;BME280;2932;52.400;9.558;2023-07-08T13:48:30;101198.88;;;34.34;35.93
5812;BME280;2932;52.400;9.558;2023-07-08T13:51:10;101197.13;;;34.57;36.09
5812;BME280;2932;52.400;9.558;2023-07-08T13:56:12;101194.09;;;34.81;35.82
5812;BME280;2932;52.400;9.558;2023-07-08T13:58:43;101199.91;;;34.66;35.95
5812;BME280;2932;52.400;9.558;2023-07-08T14:01:37;101196.13;;;34.60;36.35
5812;BME280;2932;52.400;9.558;2023-07-08T14:04:04;101194.34;;;34.63;35.55
5812;BME280;2932;52.400;9.558;2023-07-08T14:06:32;101195.97;;;34.49;35.61
5812;BME280;2932;52.400;9.558;2023-07-08T14:09:06;101189.63;;;34.45;35.75
5812;BME280;2932;52.400;9.558;2023-07-08T14:11:34;101190.09;;;34.58;35.62
5812;BME280;2932;52.400;9.558;2023-07-08T14:13:59;101192.06;;;34.67;36.05
5812;BME280;2932;52.400;9.558;2023-07-08T14:16:27;101190.81;;;34.53;35.93
5812;BME280;2932;52.400;9.558;2023-07-08T14:18:58;101192.38;;;34.54;36.31
5812;BME280;2932;52.400;9.558;2023-07-08T14:21:24;101187.00;;;34.62;36.24
5812;BME280;2932;52.400;9.558;2023-07-08T14:23:50;101182.06;;;34.62;35.46
5812;BME280;2932;52.400;9.558;2023-07-08T14:26:15;101185.44;;;34.61;36.17